Insider Stock Trading History of Spudich James A


The following table details the trading activities (stock purchases, stock sales, and stock option exercises) reported to the Securities and Exchange Commission (SEC) by insider Spudich James A since year 2005. The trader's CIK number is 1288531. At the time of this reporting, Spudich James A is the Director of Cytokinetics Inc . (stock ticker symbol CYTK). See this page for all insider trading activities at Cytokinetics Inc .


Stock purchases, sales, and option exercises reported by insider Spudich James A since 2005.
  Trade Date   Symbol Company Name (Issuer) Trade Type     Shares       Price ($)   Value ($)
2008-04-25 CYTK Cytokinetics Inc Sale 2,000 3.32 6,630
2008-03-20 CYTK Cytokinetics Inc Sale 2,000 3.38 6,770
2008-02-27 CYTK Cytokinetics Inc Sale 2,000 3.50 7,000
2008-01-08 CYTK Cytokinetics Inc Sale 3,000 4.52 13,559
2007-12-10 CYTK Cytokinetics Inc Sale 3,000 5.64 16,908
2007-11-02 CYTK Cytokinetics Inc Sale 3,000 5.19 15,570
2007-10-03 CYTK Cytokinetics Inc Sale 3,000 5.41 16,230
2007-10-03 CYTK Cytokinetics Inc Sale 3,000 5.41 16,230
2007-09-05 CYTK Cytokinetics Inc Sale 3,000 4.96 14,880
2007-08-02 CYTK Cytokinetics Inc Sale 3,000 5.23 15,690
2007-07-03 CYTK Cytokinetics Inc Sale 3,000 5.68 17,055
2007-06-04 CYTK Cytokinetics Inc Sale 3,000 6.52 19,560
2007-05-11 CYTK Cytokinetics Inc Sale 3,000 6.68 20,025
2007-01-11 CYTK Cytokinetics Inc Sale 2,200 8.32 18,293
2006-12-21 CYTK Cytokinetics Inc Sale 2,200 6.83 15,032
2006-11-21 CYTK Cytokinetics Inc Sale 2,200 7.73 17,012
2006-10-24 CYTK Cytokinetics Inc Sale 2,200 7.02 15,433
2006-09-29 CYTK Cytokinetics Inc Sale 2,200 6.48 14,267
2006-08-25 CYTK Cytokinetics Inc Sale 2,200 6.07 13,356
2006-07-25 CYTK Cytokinetics Inc Sale 2,200 5.88 12,940
2006-06-29 CYTK Cytokinetics Inc Sale 2,200 6.49 14,278
2006-05-22 CYTK Cytokinetics Inc Sale 2,200 7.29 16,038
2006-04-04 CYTK Cytokinetics Inc Sale 2,200 7.61 16,748
2006-03-02 CYTK Cytokinetics Inc Sale 2,200 7.11 15,648
2006-02-03 CYTK Cytokinetics Inc Sale 2,200 7.72 16,973

Insider trading activities including stock purchases, stock sales, and option exercises listed in the above table cannot be completely guaranteed as to their accuracy. For more information regarding the trades made by Spudich James A (Director of Cytokinetics Inc at the time of this reporting) see the Securities and Exchange Commission (SEC) website.